Time;durP1;ratioP1;P1;durP2;ratioP2;P2;SDS_P1;SDS_P2;PMS_P1;PMS_P2;Temp;Humidity;BMP_temperature;BMP_pressure;BME280_temperature;BME280_humidity;BME280_pressure;Samples;Min_cycle;Max_cycle;Signal;HPM_P1;HPM_P2
2021/11/05 00:02:06;;;;;;;10.18;4.68;;;18.60;79.90;;;;;;5065336;28;20115;-71
2021/11/05 00:04:52;;;;;;;9.85;3.90;;;18.50;80.10;;;;;;5067606;28;20051;-70
2021/11/05 00:08:02;;;;;;;9.65;4.65;;;18.50;80.30;;;;;;5066875;28;20542;-73
2021/11/05 00:11:08;;;;;;;12.85;4.68;;;18.60;80.30;;;;;;5060547;28;20046;-69
2021/11/05 00:13:34;;;;;;;14.88;4.97;;;18.60;80.20;;;;;;5067057;28;20108;-70
2021/11/05 00:16:01;;;;;;;13.50;5.35;;;18.60;80.30;;;;;;5067462;28;20024;-69
2021/11/05 00:18:27;;;;;;;13.43;5.53;;;18.60;80.50;;;;;;5065525;28;20051;-69
2021/11/05 00:20:54;;;;;;;19.15;5.80;;;18.60;80.70;;;;;;5068427;28;20031;-76
2021/11/05 00:23:21;;;;;;;16.70;4.93;;;18.60;81.00;;;;;;5061128;28;20017;-75
2021/11/05 00:25:47;;;;;;;10.52;4.65;;;18.60;81.30;;;;;;5065492;28;20115;-69
2021/11/05 00:28:15;;;;;;;12.20;4.85;;;18.60;81.30;;;;;;5068226;28;20104;-69
2021/11/05 00:30:43;;;;;;;14.30;4.68;;;18.60;81.50;;;;;;5064682;28;20048;-69
2021/11/05 00:33:09;;;;;;;12.65;6.07;;;18.60;81.70;;;;;;5069660;28;20428;-70
2021/11/05 00:35:36;;;;;;;17.65;6.78;;;18.60;82.00;;;;;;5065982;28;20399;-69
2021/11/05 00:38:02;;;;;;;13.90;6.20;;;18.70;82.30;;;;;;5065745;28;20052;-70
2021/11/05 00:40:29;;;;;;;10.80;6.35;;;18.70;82.30;;;;;;5060998;28;20065;-69
2021/11/05 00:42:56;;;;;;;16.85;5.60;;;18.70;82.30;;;;;;5068219;28;20028;-72
2021/11/05 00:45:22;;;;;;;17.17;5.90;;;18.70;82.30;;;;;;5062195;28;20568;-75
2021/11/05 00:47:49;;;;;;;10.63;5.90;;;18.70;82.30;;;;;;5066091;28;20146;-69
2021/11/05 00:50:16;;;;;;;17.02;5.53;;;18.70;82.20;;;;;;5058872;28;20028;-69
2021/11/05 00:52:42;;;;;;;15.70;5.70;;;18.70;82.10;;;;;;5063481;28;20012;-69
2021/11/05 00:55:09;;;;;;;17.00;6.88;;;18.80;82.10;;;;;;5064595;28;20502;-69
2021/11/05 00:57:36;;;;;;;15.10;6.68;;;18.70;82.10;;;;;;5068622;28;20477;-69
2021/11/05 01:00:06;;;;;;;13.27;6.45;;;18.80;82.40;;;;;;5062977;28;20510;-70
2021/11/05 01:02:32;;;;;;;20.67;6.85;;;18.70;82.50;;;;;;5067505;28;20395;-76
2021/11/05 01:04:59;;;;;;;18.63;6.38;;;18.70;82.90;;;;;;5060842;28;20437;-68
2021/11/05 01:07:25;;;;;;;11.20;5.78;;;18.70;83.00;;;;;;5064366;28;20104;-69
2021/11/05 01:09:52;;;;;;;14.05;6.35;;;18.70;82.90;;;;;;5059586;28;20024;-68
2021/11/05 01:12:20;;;;;;;13.35;6.47;;;18.70;82.80;;;;;;5069805;28;20469;-68
2021/11/05 01:14:47;;;;;;;14.95;6.65;;;18.70;82.90;;;;;;5063995;28;20055;-74
2021/11/05 01:17:14;;;;;;;12.05;6.03;;;18.70;83.20;;;;;;5058935;28;20509;-68
2021/11/05 01:19:41;;;;;;;19.90;6.43;;;18.70;83.00;;;;;;5066018;28;20153;-75
2021/11/05 01:22:07;;;;;;;13.20;5.53;;;18.70;82.90;;;;;;5064821;28;20091;-68
2021/11/05 01:24:34;;;;;;;17.00;5.90;;;18.70;82.70;;;;;;5059789;28;20028;-71
2021/11/05 01:27:00;;;;;;;12.82;6.45;;;18.70;82.50;;;;;;5055247;28;20089;-68
2021/11/05 01:29:27;;;;;;;16.83;5.90;;;18.70;82.50;;;;;;5064389;28;20048;-68
2021/11/05 01:31:53;;;;;;;17.95;5.90;;;18.60;82.70;;;;;;5062262;28;20036;-68
2021/11/05 01:34:21;;;;;;;27.05;8.15;;;18.60;83.10;;;;;;5065221;28;20041;-68
2021/11/05 01:36:47;;;;;;;17.95;5.55;;;18.60;83.40;;;;;;5057563;28;20036;-69
2021/11/05 01:39:15;;;;;;;10.50;5.35;;;18.70;83.40;;;;;;5060789;28;20506;-76
2021/11/05 01:41:42;;;;;;;11.85;6.30;;;18.70;83.30;;;;;;5060833;28;20055;-70
2021/11/05 01:44:09;;;;;;;12.07;5.53;;;18.70;83.20;;;;;;5065354;28;20096;-76
2021/11/05 01:46:41;;;;;;;9.30;5.68;;;18.70;83.30;;;;;;5058580;28;20040;-68
2021/11/05 01:49:09;;;;;;;11.85;5.45;;;18.70;83.50;;;;;;5064123;28;20099;-69
2021/11/05 01:51:37;;;;;;;12.35;6.40;;;18.70;83.60;;;;;;5064238;28;20028;-69
2021/11/05 01:54:13;;;;;;;11.50;5.68;;;18.70;83.80;;;;;;5068112;28;20012;-67
2021/11/05 01:56:41;;;;;;;11.80;6.13;;;18.70;83.80;;;;;;5064991;28;20075;-68
2021/11/05 01:59:25;;;;;;;19.17;7.47;;;18.70;83.80;;;;;;5066222;28;20106;-68
2021/11/05 02:01:52;;;;;;;13.60;5.55;;;18.70;83.40;;;;;;5064648;28;20020;-69
2021/11/05 02:04:19;;;;;;;16.00;6.28;;;18.70;83.40;;;;;;5061729;28;20078;-70
2021/11/05 02:06:48;;;;;;;14.80;5.13;;;18.70;84.10;;;;;;5062296;28;20843;-69
2021/11/05 02:09:18;;;;;;;16.50;6.00;;;18.60;83.50;;;;;;5061058;28;20028;-68
2021/11/05 02:11:46;;;;;;;15.50;6.25;;;18.60;83.70;;;;;;5062503;28;20043;-69
2021/11/05 02:14:22;;;;;;;10.75;5.35;;;18.60;83.60;;;;;;5066491;28;20384;-68
2021/11/05 02:16:52;;;;;;;12.73;5.40;;;18.60;83.50;;;;;;5067105;28;20024;-68
2021/11/05 02:19:21;;;;;;;10.20;5.43;;;18.60;83.30;;;;;;5061007;28;20361;-70
2021/11/05 02:21:50;;;;;;;15.90;6.85;;;18.60;83.40;;;;;;5056742;28;20043;-68
2021/11/05 02:24:19;;;;;;;12.10;6.00;;;18.60;83.50;;;;;;5060455;28;20032;-70
2021/11/05 02:26:46;;;;;;;17.38;7.63;;;18.60;83.60;;;;;;5064302;28;20056;-71
2021/11/05 02:29:13;;;;;;;26.58;7.60;;;18.60;83.50;;;;;;5067459;28;20028;-69
2021/11/05 02:31:41;;;;;;;14.77;5.72;;;18.60;83.10;;;;;;5060890;28;20016;-69
2021/11/05 02:34:07;;;;;;;12.43;5.93;;;18.60;83.10;;;;;;5060786;28;20086;-69
2021/11/05 02:36:34;;;;;;;15.50;6.93;;;18.50;83.20;;;;;;5058700;28;20124;-69
2021/11/05 02:39:08;;;;;;;15.18;5.55;;;18.50;83.40;;;;;;5060368;28;20048;-71
2021/11/05 02:41:40;;;;;;;14.98;6.13;;;18.50;83.60;;;;;;5058324;28;20032;-69
2021/11/05 02:44:06;;;;;;;13.07;6.65;;;18.50;83.90;;;;;;5058315;28;20025;-69
2021/11/05 02:46:33;;;;;;;17.10;6.40;;;18.50;84.10;;;;;;5062726;28;20043;-76
2021/11/05 02:49:03;;;;;;;14.50;7.25;;;18.50;84.20;;;;;;5061915;28;20020;-69
2021/11/05 02:51:30;;;;;;;15.20;6.95;;;18.50;84.20;;;;;;5058569;28;20024;-70
2021/11/05 02:53:57;;;;;;;14.57;6.18;;;18.60;84.40;;;;;;5062785;28;20539;-69
2021/11/05 02:57:03;;;;;;;11.43;5.50;;;18.60;84.40;;;;;;5062984;28;20021;-69
2021/11/05 03:00:09;;;;;;;12.85;5.85;;;18.60;84.30;;;;;;5061301;28;20030;-70
2021/11/05 03:03:15;;;;;;;11.05;4.80;;;18.60;84.20;;;;;;5060834;28;20013;-68
2021/11/05 03:06:21;;;;;;;17.38;3.55;;;18.70;83.80;;;;;;5060719;28;20499;-69
2021/11/05 03:09:27;;;;;;;6.20;3.75;;;18.80;83.50;;;;;;5056064;28;20021;-69
2021/11/05 03:12:33;;;;;;;11.80;3.88;;;18.80;82.90;;;;;;5066143;28;20032;-69
2021/11/05 03:15:39;;;;;;;9.50;3.38;;;18.80;82.40;;;;;;5069691;28;20059;-69
2021/11/05 03:18:45;;;;;;;7.20;3.15;;;18.80;82.00;;;;;;5064146;28;20024;-74
2021/11/05 03:21:51;;;;;;;11.85;4.40;;;18.80;81.70;;;;;;5068963;28;20044;-69
2021/11/05 03:24:18;;;;;;;10.90;5.32;;;18.80;81.60;;;;;;5066474;28;20050;-70
2021/11/05 03:26:45;;;;;;;15.80;6.25;;;18.80;81.60;;;;;;5064827;28;20644;-70
2021/11/05 03:29:12;;;;;;;15.38;7.00;;;18.80;81.70;;;;;;5065593;28;20016;-70
2021/11/05 03:31:38;;;;;;;12.55;6.07;;;18.80;82.10;;;;;;5069521;28;20028;-68
2021/11/05 03:34:05;;;;;;;15.20;6.57;;;18.80;82.00;;;;;;5066140;28;20055;-69
2021/11/05 03:36:32;;;;;;;17.00;6.72;;;18.90;82.10;;;;;;5068640;28;20047;-70
2021/11/05 03:38:59;;;;;;;17.65;4.90;;;18.80;82.00;;;;;;5064203;28;20161;-68
2021/11/05 03:41:26;;;;;;;32.28;22.75;;;18.80;81.80;;;;;;5060647;28;20046;-73
2021/11/05 03:43:53;;;;;;;71.90;51.28;;;18.80;82.00;;;;;;5060949;28;20021;-68
2021/11/05 03:46:20;;;;;;;20.10;9.73;;;18.90;82.00;;;;;;5065174;28;20173;-71
2021/11/05 03:48:46;;;;;;;12.45;4.65;;;18.80;81.60;;;;;;5061880;28;20028;-72
2021/11/05 03:51:13;;;;;;;7.50;2.70;;;18.80;81.40;;;;;;5067770;28;20387;-68
2021/11/05 03:53:40;;;;;;;11.05;2.85;;;18.80;81.40;;;;;;5066983;28;20363;-70
2021/11/05 03:56:07;;;;;;;9.23;2.95;;;18.70;81.30;;;;;;5064218;28;20703;-69
2021/11/05 03:58:36;;;;;;;10.10;3.78;;;18.70;81.30;;;;;;5063989;28;20099;-74
2021/11/05 04:01:03;;;;;;;10.27;3.35;;;18.70;81.50;;;;;;5062276;28;20460;-77
2021/11/05 04:03:30;;;;;;;7.75;3.25;;;18.70;81.40;;;;;;5066507;28;20028;-71
2021/11/05 04:05:57;;;;;;;17.90;6.90;;;18.70;81.50;;;;;;5065117;28;20151;-73
2021/11/05 04:08:24;;;;;;;22.88;9.95;;;18.70;81.70;;;;;;5067460;28;20027;-72
2021/11/05 04:10:52;;;;;;;9.60;4.05;;;18.70;81.70;;;;;;5060588;28;20025;-78
2021/11/05 04:13:19;;;;;;;27.30;16.63;;;18.60;81.90;;;;;;5064492;28;20039;-77
2021/11/05 04:15:45;;;;;;;24.90;15.95;;;18.70;82.00;;;;;;5060580;28;20063;-76
2021/11/05 04:18:12;;;;;;;11.63;7.03;;;18.70;81.80;;;;;;5063598;28;20467;-78
2021/11/05 04:20:38;;;;;;;12.57;4.72;;;18.70;81.70;;;;;;5064345;28;20393;-74
2021/11/05 04:23:06;;;;;;;15.40;4.63;;;18.70;81.50;;;;;;5064486;28;20012;-71
2021/11/05 04:25:34;;;;;;;11.93;5.22;;;18.70;81.30;;;;;;5063977;28;20094;-72
2021/11/05 04:28:02;;;;;;;15.73;4.07;;;18.80;81.00;;;;;;5065509;28;20036;-74
2021/11/05 04:30:29;;;;;;;11.73;3.83;;;18.70;80.70;;;;;;5061761;28;20013;-72
2021/11/05 04:32:55;;;;;;;16.95;4.68;;;18.80;80.50;;;;;;5056136;28;20096;-76
2021/11/05 04:35:22;;;;;;;10.65;3.95;;;18.80;80.40;;;;;;5059039;28;20049;-73
2021/11/05 04:37:49;;;;;;;10.70;3.90;;;18.80;80.10;;;;;;5056422;28;20091;-80
2021/11/05 04:40:15;;;;;;;10.60;3.72;;;18.80;79.80;;;;;;5059289;28;20024;-73
2021/11/05 04:42:42;;;;;;;9.48;3.85;;;18.80;79.40;;;;;;5058505;28;20023;-74
2021/11/05 04:45:09;;;;;;;17.40;5.25;;;18.80;79.10;;;;;;5060975;28;20036;-76
2021/11/05 04:47:36;;;;;;;10.23;3.53;;;18.80;79.30;;;;;;5065863;28;20024;-76
2021/11/05 04:50:03;;;;;;;8.68;3.13;;;18.90;79.00;;;;;;5061846;28;20048;-75
2021/11/05 04:52:30;;;;;;;8.10;3.10;;;18.90;78.60;;;;;;5063727;28;20062;-77
2021/11/05 04:55:36;;;;;;;11.57;3.65;;;18.90;78.40;;;;;;5062491;28;20467;-81
2021/11/05 04:58:42;;;;;;;8.82;2.95;;;18.90;78.00;;;;;;5055255;28;20045;-77
2021/11/05 05:01:48;;;;;;;7.47;3.10;;;18.90;77.60;;;;;;5056410;28;20025;-77
2021/11/05 05:04:55;;;;;;;4.85;2.10;;;18.90;77.20;;;;;;5051930;28;20106;-77
2021/11/05 05:08:01;;;;;;;10.70;2.65;;;18.90;76.50;;;;;;5055230;28;20430;-77
2021/11/05 05:10:36;;;;;;;11.10;2.42;;;19.00;76.20;;;;;;5058085;28;20383;-78
2021/11/05 05:13:02;;;;;;;10.43;2.50;;;19.10;76.00;;;;;;5054300;28;20040;-76
2021/11/05 05:15:31;;;;;;;10.13;2.45;;;19.10;75.20;;;;;;5058726;28;20024;-76
2021/11/05 05:17:58;;;;;;;7.78;2.55;;;19.10;74.80;;;;;;5053638;28;20503;-78
2021/11/05 05:20:26;;;;;;;11.30;2.88;;;19.10;74.40;;;;;;5054544;28;20495;-75
2021/11/05 05:22:53;;;;;;;18.10;3.45;;;19.20;74.20;;;;;;5054204;28;20020;-77
2021/11/05 05:25:20;;;;;;;7.88;2.28;;;19.20;74.10;;;;;;5060794;28;20504;-75
2021/11/05 05:27:48;;;;;;;7.70;2.88;;;19.30;73.80;;;;;;5052638;28;20025;-76
2021/11/05 05:30:16;;;;;;;7.50;2.22;;;19.30;73.10;;;;;;5054746;28;20028;-76
2021/11/05 05:32:45;;;;;;;11.80;2.67;;;19.40;72.90;;;;;;5055940;28;20025;-79
2021/11/05 05:35:13;;;;;;;11.15;3.15;;;19.40;72.50;;;;;;5054811;28;20495;-76
2021/11/05 05:37:40;;;;;;;8.63;2.70;;;19.40;72.60;;;;;;5053968;28;20035;-77
2021/11/05 05:40:08;;;;;;;11.27;2.85;;;19.40;72.30;;;;;;5063453;28;20021;-78
2021/11/05 05:43:14;;;;;;;8.25;2.80;;;19.50;72.10;;;;;;5057091;28;20017;-76
2021/11/05 05:46:20;;;;;;;7.75;2.92;;;19.50;72.10;;;;;;5062094;28;20626;-77
2021/11/05 05:49:26;;;;;;;8.90;2.50;;;19.60;71.90;;;;;;5060601;28;20021;-76
2021/11/05 05:52:32;;;;;;;4.90;2.25;;;19.60;71.50;;;;;;5056254;28;20071;-77
2021/11/05 05:55:39;;;;;;;6.05;1.75;;;19.70;71.10;;;;;;5057559;28;20020;-74
2021/11/05 05:58:45;;;;;;;6.20;2.97;;;19.70;70.60;;;;;;5061840;28;20127;-77
2021/11/05 06:01:51;;;;;;;9.27;2.40;;;19.80;70.00;;;;;;5062521;28;20039;-76
2021/11/05 06:04:57;;;;;;;7.47;2.40;;;19.80;69.50;;;;;;5061522;28;20020;-76
2021/11/05 06:08:03;;;;;;;11.85;2.15;;;19.80;68.90;;;;;;5064269;28;20036;-77
2021/11/05 06:11:09;;;;;;;6.82;1.90;;;19.80;68.90;;;;;;5060663;28;20107;-79
2021/11/05 06:14:15;;;;;;;7.68;1.58;;;19.80;68.70;;;;;;5061724;28;20392;-76
2021/11/05 06:17:21;;;;;;;8.38;1.48;;;19.80;68.50;;;;;;5062125;28;20035;-79
2021/11/05 06:20:27;;;;;;;5.80;1.77;;;19.90;68.50;;;;;;5060127;28;20430;-75
2021/11/05 06:23:33;;;;;;;5.75;1.48;;;19.90;68.10;;;;;;5059773;28;20434;-75
2021/11/05 06:26:40;;;;;;;4.93;1.85;;;20.00;67.10;;;;;;5062791;28;20036;-75
2021/11/05 06:29:46;;;;;;;4.03;1.63;;;20.00;66.60;;;;;;5062007;28;20032;-79
2021/11/05 06:32:52;;;;;;;10.38;2.13;;;20.10;66.70;;;;;;5063241;28;20163;-75
2021/11/05 06:35:58;;;;;;;8.93;2.05;;;20.10;66.70;;;;;;5052261;28;20819;-75
2021/11/05 06:39:04;;;;;;;7.15;1.55;;;20.20;66.80;;;;;;5060955;28;20024;-75
2021/11/05 06:42:12;;;;;;;5.95;1.98;;;20.20;66.30;;;;;;5065366;28;20048;-77
2021/11/05 06:45:18;;;;;;;11.30;2.42;;;20.30;65.50;;;;;;5062829;28;20065;-75
2021/11/05 06:48:24;;;;;;;6.25;1.25;;;20.30;64.90;;;;;;5063219;28;20541;-76
2021/11/05 06:51:30;;;;;;;5.07;2.13;;;20.40;64.70;;;;;;5063409;28;20490;-77
2021/11/05 06:54:38;;;;;;;4.40;1.23;;;20.50;64.20;;;;;;5059341;28;20059;-75
2021/11/05 06:57:44;;;;;;;5.53;2.28;;;20.50;63.70;;;;;;5067881;28;20052;-76
2021/11/05 07:00:50;;;;;;;9.40;1.65;;;20.60;62.90;;;;;;5066787;28;20028;-76
2021/11/05 07:03:56;;;;;;;4.80;1.30;;;20.70;62.00;;;;;;5061513;28;20024;-75
2021/11/05 07:07:02;;;;;;;5.72;1.20;;;20.70;61.30;;;;;;5061768;28;20037;-76
2021/11/05 07:10:09;;;;;;;5.68;1.10;;;20.80;60.70;;;;;;5065622;28;20017;-77
2021/11/05 07:13:15;;;;;;;5.78;1.50;;;20.90;60.90;;;;;;5069370;28;20029;-76
2021/11/05 07:16:21;;;;;;;7.72;1.48;;;21.00;60.90;;;;;;5064127;28;20070;-76
2021/11/05 07:19:27;;;;;;;6.93;1.77;;;21.10;59.40;;;;;;5062074;28;20036;-76
2021/11/05 07:22:33;;;;;;;4.00;1.20;;;21.20;59.00;;;;;;5059112;28;20391;-75
2021/11/05 07:25:19;;;;;;;;;;;21.20;57.10;;;;;;5066971;28;20016;-75
2021/11/05 07:28:25;;;;;;;4.40;1.08;;;21.20;57.70;;;;;;5069520;28;20325;-76
2021/11/05 07:31:31;;;;;;;4.70;1.38;;;21.20;57.10;;;;;;5065497;28;20024;-76
2021/11/05 07:34:37;;;;;;;3.78;1.27;;;21.30;57.20;;;;;;5061455;28;20017;-77
2021/11/05 07:37:43;;;;;;;3.70;1.23;;;21.30;57.00;;;;;;5068658;28;20020;-75
2021/11/05 07:40:50;;;;;;;6.13;2.08;;;21.40;57.30;;;;;;5063897;28;20021;-75
2021/11/05 07:43:56;;;;;;;7.05;2.25;;;21.50;57.00;;;;;;5069542;28;20060;-76
2021/11/05 07:47:02;;;;;;;5.13;1.90;;;21.60;56.10;;;;;;5063235;28;20040;-77
2021/11/05 07:50:08;;;;;;;4.80;1.40;;;21.70;56.00;;;;;;5069381;28;20028;-76
2021/11/05 07:53:14;;;;;;;5.50;1.20;;;21.80;55.80;;;;;;5052235;28;20033;-76
2021/11/05 07:56:20;;;;;;;6.15;1.83;;;21.90;54.30;;;;;;5066199;28;20455;-78
2021/11/05 07:59:26;;;;;;;7.97;1.77;;;21.90;54.20;;;;;;5058606;28;20515;-76
2021/11/05 08:02:32;;;;;;;11.52;2.00;;;21.80;54.70;;;;;;5058135;28;20500;-77
2021/11/05 08:05:38;;;;;;;5.07;1.88;;;21.90;54.30;;;;;;5065856;28;20530;-76
2021/11/05 08:08:44;;;;;;;3.92;1.40;;;21.90;53.10;;;;;;5067500;28;20111;-78
2021/11/05 08:11:50;;;;;;;26.92;3.92;;;22.00;53.90;;;;;;5064174;28;20013;-76
2021/11/05 08:14:56;;;;;;;8.20;1.95;;;22.10;53.70;;;;;;5064694;28;20025;-75
2021/11/05 08:18:03;;;;;;;6.47;1.85;;;22.30;53.40;;;;;;5059460;28;20021;-78
2021/11/05 08:21:09;;;;;;;5.93;1.42;;;22.50;52.90;;;;;;5061192;28;20036;-77
2021/11/05 08:24:15;;;;;;;8.38;1.50;;;22.50;52.00;;;;;;5064968;28;20047;-75
2021/11/05 08:27:21;;;;;;;5.18;1.85;;;22.40;51.20;;;;;;5060874;28;20395;-76
2021/11/05 08:30:27;;;;;;;2.83;1.02;;;22.30;51.30;;;;;;5064968;28;20503;-76
2021/11/05 08:33:33;;;;;;;6.82;1.40;;;22.20;51.80;;;;;;5063999;28;20116;-77
2021/11/05 08:36:39;;;;;;;10.23;1.83;;;22.20;52.30;;;;;;5062129;28;20052;-76
2021/11/05 08:39:45;;;;;;;10.98;2.67;;;22.20;52.80;;;;;;5062404;28;20768;-75
2021/11/05 08:42:51;;;;;;;4.90;2.00;;;22.30;53.50;;;;;;5065339;28;20027;-77
2021/11/05 08:45:57;;;;;;;22.42;3.60;;;22.30;52.80;;;;;;5063142;28;20040;-78
2021/11/05 08:49:03;;;;;;;12.25;2.47;;;22.30;52.90;;;;;;5062092;28;20020;-76
2021/11/05 08:52:09;;;;;;;4.22;1.80;;;22.20;53.40;;;;;;5055958;28;20512;-75
2021/11/05 08:55:15;;;;;;;5.15;1.52;;;22.20;53.80;;;;;;5061205;28;20500;-75
2021/11/05 08:58:21;;;;;;;4.97;1.80;;;22.20;53.40;;;;;;5064085;28;20024;-75
2021/11/05 09:01:27;;;;;;;7.35;1.83;;;22.10;52.50;;;;;;5063856;28;20020;-76
2021/11/05 09:04:33;;;;;;;8.10;1.95;;;22.10;53.10;;;;;;5064410;28;20107;-75
2021/11/05 09:07:39;;;;;;;9.15;1.90;;;22.00;53.40;;;;;;5058169;28;20086;-75
2021/11/05 09:10:46;;;;;;;12.80;2.25;;;22.00;54.00;;;;;;5056219;28;20021;-76
2021/11/05 09:13:52;;;;;;;9.05;2.35;;;21.90;55.80;;;;;;5065625;28;20037;-75
2021/11/05 09:16:58;;;;;;;9.23;2.40;;;21.90;56.00;;;;;;5064823;28;20021;-77
2021/11/05 09:20:04;;;;;;;11.75;2.53;;;21.90;55.80;;;;;;5060357;28;20016;-74
2021/11/05 09:23:10;;;;;;;10.25;2.53;;;21.90;55.50;;;;;;5067069;28;20412;-75
2021/11/05 09:26:17;;;;;;;11.40;3.47;;;21.90;55.40;;;;;;5063784;28;20033;-76
2021/11/05 09:29:23;;;;;;;10.15;4.18;;;21.90;54.50;;;;;;5067993;28;20013;-76
2021/11/05 09:32:29;;;;;;;8.02;1.80;;;22.00;54.50;;;;;;5060810;28;20484;-78
2021/11/05 09:35:36;;;;;;;5.18;1.98;;;22.20;54.10;;;;;;5063241;28;20101;-76
2021/11/05 09:38:42;;;;;;;4.50;1.60;;;22.30;53.40;;;;;;5065365;28;20117;-76
2021/11/05 09:41:48;;;;;;;14.80;2.90;;;22.40;52.30;;;;;;5060169;28;20480;-77
2021/11/05 09:44:54;;;;;;;5.28;1.63;;;22.40;51.60;;;;;;5065634;28;20024;-75
2021/11/05 09:47:40;;;;;;;;;;;22.50;51.60;;;;;;5068907;28;20032;-76
2021/11/05 09:50:46;;;;;;;9.13;2.38;;;22.60;51.30;;;;;;5063899;28;19905;-76
2021/11/05 09:53:52;;;;;;;8.15;2.60;;;22.60;51.50;;;;;;5056603;28;20559;-78
2021/11/05 09:56:58;;;;;;;8.00;1.58;;;22.70;51.60;;;;;;5058559;28;20021;-77
2021/11/05 10:00:04;;;;;;;3.72;1.35;;;22.70;51.20;;;;;;5058384;28;20013;-78
2021/11/05 10:03:10;;;;;;;5.22;1.42;;;22.60;51.20;;;;;;5059451;28;20383;-76
2021/11/05 10:06:19;;;;;;;8.32;2.05;;;22.60;51.00;;;;;;5061550;28;20062;-75
2021/11/05 10:09:25;;;;;;;7.50;1.85;;;22.60;51.10;;;;;;5061024;28;20484;-76
2021/11/05 10:12:31;;;;;;;9.18;2.78;;;22.60;50.80;;;;;;5062381;28;20016;-75
2021/11/05 10:15:20;;;;;;;;;;;22.70;50.70;;;;;;5062248;28;20029;-75
2021/11/05 10:18:26;;;;;;;5.88;2.00;;;22.70;51.00;;;;;;5065377;28;20375;-76
2021/11/05 10:21:45;;;;;;;5.93;2.30;;;22.80;50.90;;;;;;5063768;28;20032;-75
2021/11/05 10:24:54;;;;;;;5.55;1.92;;;22.90;50.60;;;;;;5064483;28;20028;-76
2021/11/05 10:28:24;;;;;;;8.50;2.13;;;22.90;50.60;;;;;;5059800;28;20038;-78
2021/11/05 10:31:26;;;;;;;4.63;1.10;;;22.90;50.50;;;;;;5060886;28;20027;-77
2021/11/05 10:34:32;;;;;;;5.53;1.90;;;22.90;50.10;;;;;;5058819;28;20029;-79
2021/11/05 10:37:47;;;;;;;6.28;1.20;;;22.90;50.20;;;;;;5061442;28;20554;-77
2021/11/05 10:40:59;;;;;;;5.32;1.90;;;23.00;50.30;;;;;;5064656;28;20031;-78
2021/11/05 10:44:32;;;;;;;6.82;2.03;;;22.90;50.00;;;;;;5063923;28;20029;-78
2021/11/05 10:47:47;;;;;;;8.02;2.28;;;22.90;50.40;;;;;;5059739;28;20044;-77
2021/11/05 10:50:45;;;;;;;8.98;2.47;;;22.80;51.20;;;;;;5056471;28;20016;-78
2021/11/05 10:53:57;;;;;;;12.18;2.58;;;22.80;51.60;;;;;;5075318;28;20025;-75
2021/11/05 10:56:26;;;;;;;9.00;2.90;;;22.70;50.60;;;;;;5067181;28;20115;-75
2021/11/05 10:58:59;;;;;;;9.88;2.00;;;22.70;51.00;;;;;;5065565;28;20017;-78
2021/11/05 11:01:30;;;;;;;3.83;2.60;;;22.60;50.50;;;;;;5064997;28;20036;-77
2021/11/05 11:03:58;;;;;;;2.53;1.42;;;22.60;50.10;;;;;;5061878;28;20029;-79
2021/11/05 11:06:30;;;;;;;7.25;1.77;;;22.70;50.10;;;;;;5062071;28;20025;-78
2021/11/05 11:08:59;;;;;;;3.80;1.77;;;22.70;50.00;;;;;;5059051;28;20117;-75
2021/11/05 11:11:30;;;;;;;5.63;2.00;;;22.80;50.10;;;;;;5065484;28;20017;-75
2021/11/05 11:14:08;;;;;;;4.50;1.77;;;22.90;51.10;;;;;;5067487;28;20058;-75
2021/11/05 11:16:40;;;;;;;7.35;1.77;;;22.90;51.30;;;;;;5067656;28;20074;-77
2021/11/05 11:19:13;;;;;;;6.25;2.30;;;22.90;51.90;;;;;;5069636;28;20024;-76
2021/11/05 11:21:57;;;;;;;6.20;1.60;;;22.90;51.60;;;;;;5068554;28;20116;-76
2021/11/05 11:24:26;;;;;;;6.07;1.60;;;22.90;50.60;;;;;;5068378;28;20039;-76
2021/11/05 11:26:54;;;;;;;6.93;1.75;;;22.90;49.50;;;;;;5069137;28;20028;-82
2021/11/05 11:29:23;;;;;;;6.15;1.55;;;23.00;49.10;;;;;;5069534;28;20090;-80
2021/11/05 11:31:51;;;;;;;2.85;1.25;;;23.10;49.00;;;;;;5073202;28;20025;-80
2021/11/05 11:34:19;;;;;;;3.67;1.00;;;23.20;48.70;;;;;;5072145;28;20056;-79
2021/11/05 11:36:51;;;;;;;6.45;2.00;;;23.30;48.30;;;;;;5072401;28;20021;-83
2021/11/05 11:39:20;;;;;;;4.57;1.33;;;23.50;48.10;;;;;;5073744;28;20017;-80
2021/11/05 11:41:48;;;;;;;6.00;1.40;;;23.60;47.50;;;;;;5072282;28;20016;-85
2021/11/05 11:44:18;;;;;;;5.00;1.23;;;23.70;47.40;;;;;;5073725;28;20376;-83
2021/11/05 11:47:02;;;;;;;8.52;2.38;;;23.70;47.70;;;;;;5072610;28;20107;-84
2021/11/05 11:49:37;;;;;;;5.88;1.30;;;23.80;47.60;;;;;;5074219;28;20519;-83
2021/11/05 11:52:05;;;;;;;4.82;1.27;;;23.90;47.20;;;;;;5073492;28;20016;-83
2021/11/05 11:54:35;;;;;;;4.28;1.40;;;24.00;47.10;;;;;;5072148;28;20459;-86
2021/11/05 11:57:13;;;;;;;6.60;1.40;;;24.00;46.00;;;;;;5074520;28;20020;-83
2021/11/05 11:59:43;;;;;;;5.50;1.52;;;24.00;45.80;;;;;;5072605;28;20131;-82
2021/11/05 12:02:37;;;;;;;4.82;1.33;;;24.10;46.60;;;;;;5073697;28;20013;-83
2021/11/05 12:05:21;;;;;;;9.02;2.58;;;24.20;46.00;;;;;;5073078;28;20016;-83
2021/11/05 12:08:18;;;;;;;5.90;1.30;;;24.30;45.30;;;;;;5072368;28;20051;-84
2021/11/05 12:11:09;;;;;;;3.15;0.98;;;24.30;45.00;;;;;;5071658;28;20060;-81
2021/11/05 12:13:36;;;;;;;5.22;1.50;;;24.40;45.10;;;;;;5072604;28;20099;-82
2021/11/05 12:19:06;;;;;;;9.18;1.52;;;24.30;44.20;;;;;;5073485;28;20028;-82
2021/11/05 12:22:10;;;;;;;4.38;1.17;;;24.20;44.20;;;;;;5071569;28;20027;-82
2021/11/05 12:24:37;;;;;;;2.97;1.20;;;24.20;44.70;;;;;;5070909;28;20067;-83
2021/11/05 12:27:13;;;;;;;2.50;1.02;;;24.30;44.90;;;;;;5072843;28;20033;-82
2021/11/05 12:29:40;;;;;;;5.65;1.50;;;24.40;44.60;;;;;;5071492;28;20545;-81
2021/11/05 12:32:15;;;;;;;4.00;1.98;;;24.60;44.90;;;;;;5072402;28;20570;-82
2021/11/05 12:34:53;;;;;;;4.90;1.75;;;24.70;44.40;;;;;;5071074;28;20380;-82
2021/11/05 12:37:32;;;;;;;5.68;2.35;;;24.90;43.70;;;;;;5072179;28;20111;-82
2021/11/05 12:40:22;;;;;;;9.82;2.95;;;24.90;43.40;;;;;;5071900;28;20048;-83
2021/11/05 12:42:54;;;;;;;6.65;1.38;;;24.80;43.40;;;;;;5061109;28;20039;-82
2021/11/05 12:45:22;;;;;;;3.83;1.30;;;24.70;42.90;;;;;;5071775;28;20040;-81
2021/11/05 12:47:54;;;;;;;5.35;1.52;;;24.60;43.00;;;;;;5070506;28;20024;-81
2021/11/05 12:50:22;;;;;;;5.63;1.90;;;24.60;43.80;;;;;;5071489;28;20891;-81
2021/11/05 12:52:53;;;;;;;5.88;1.50;;;24.50;44.40;;;;;;5071381;28;20008;-80
2021/11/05 12:55:22;;;;;;;6.03;1.60;;;24.40;44.20;;;;;;5070377;28;20020;-80
2021/11/05 12:57:56;;;;;;;3.15;1.30;;;24.30;43.80;;;;;;5071306;28;20418;-81
2021/11/05 13:00:25;;;;;;;4.57;1.80;;;24.40;43.90;;;;;;5070007;28;20059;-78
2021/11/05 13:03:00;;;;;;;2.80;1.45;;;24.50;43.80;;;;;;5073198;28;20028;-82
2021/11/05 13:05:27;;;;;;;;;;;24.60;45.00;;;;;;5067108;28;20037;-78
2021/11/05 13:08:13;;;;;;;3.58;1.42;;;24.60;46.00;;;;;;5071392;28;19912;-82
2021/11/05 13:10:42;;;;;;;5.55;1.17;;;24.60;46.00;;;;;;5071975;28;20021;-77
2021/11/05 13:13:11;;;;;;;2.65;1.02;;;24.60;46.20;;;;;;5070237;28;20029;-79
2021/11/05 13:15:40;;;;;;;3.90;1.70;;;24.60;45.10;;;;;;5071178;28;20013;-81
2021/11/05 13:18:09;;;;;;;2.83;1.20;;;24.70;44.20;;;;;;5071070;28;20474;-79
2021/11/05 13:20:39;;;;;;;9.88;3.05;;;24.60;43.30;;;;;;5076272;28;20017;-88
2021/11/05 13:23:07;;;;;;;2.83;1.23;;;24.60;43.20;;;;;;5071187;28;20559;-84
2021/11/05 13:25:43;;;;;;;3.97;1.48;;;24.60;43.00;;;;;;5071628;28;20075;-80
2021/11/05 13:28:23;;;;;;;7.95;1.60;;;24.60;43.00;;;;;;5070929;28;20066;-82
2021/11/05 13:31:35;;;;;;;2.88;1.10;;;24.50;42.70;;;;;;5069381;28;20472;-77
2021/11/05 13:34:41;;;;;;;11.88;1.90;;;24.50;44.90;;;;;;5069662;28;20098;-77
2021/11/05 13:37:27;;;;;;;;;;;24.50;44.70;;;;;;5070932;28;20442;-75
2021/11/05 13:40:33;;;;;;;8.00;3.75;;;24.50;44.10;;;;;;5049468;28;19935;-79
2021/11/05 13:43:42;;;;;;;2.72;1.38;;;24.50;42.90;;;;;;5057996;28;20402;-80
2021/11/05 13:46:49;;;;;;;6.00;1.63;;;24.40;42.80;;;;;;5066508;28;20047;-82
2021/11/05 13:49:34;;;;;;;;;;;24.40;43.10;;;;;;5060984;28;20024;-78
2021/11/05 13:52:40;;;;;;;2.55;0.95;;;24.40;42.70;;;;;;5065154;28;19905;-78
2021/11/05 13:55:26;;;;;;;;;;;24.40;43.00;;;;;;5064402;28;20016;-78
2021/11/05 13:58:32;;;;;;;5.00;0.85;;;24.50;42.30;;;;;;5063803;28;19909;-80
2021/11/05 14:01:18;;;;;;;;;;;24.60;43.20;;;;;;5060567;28;20039;-81
2021/11/05 14:04:24;;;;;;;5.45;0.90;;;24.60;42.10;;;;;;5063962;28;19905;-85
2021/11/05 16:52:15;;;;;;;5.80;2.50;;;22.10;46.60;;;;;;5094698;27;20676;-74
2021/11/05 16:55:21;;;;;;;5.53;2.33;;;22.00;48.10;;;;;;5093366;28;20024;-72
2021/11/05 16:58:27;;;;;;;14.48;5.68;;;21.90;48.50;;;;;;5088795;28;20032;-73
2021/11/05 17:00:54;;;;;;;9.13;2.60;;;22.00;48.60;;;;;;5093064;28;20479;-71
2021/11/05 17:03:20;;;;;;;6.82;2.28;;;21.90;49.00;;;;;;5094857;28;20031;-72
2021/11/05 17:05:47;;;;;;;5.13;2.33;;;21.80;49.20;;;;;;5090909;28;20025;-71